Time;durP1;ratioP1;P1;durP2;ratioP2;P2;SDS_P1;SDS_P2;PMS_P1;PMS_P2;Temp;Humidity;BMP_temperature;BMP_pressure;BME280_temperature;BME280_humidity;BME280_pressure;Samples;Min_cycle;Max_cycle;Signal;HPM_P1;HPM_P2
2023/03/25 00:01:37;;;;;;;0.50;0.40;;;17.10;72.70;;;;;;5006501;28;20465;-80
2023/03/25 00:04:03;;;;;;;1.02;0.47;;;17.10;72.70;;;;;;5006986;28;20141;-80
2023/03/25 00:06:29;;;;;;;0.63;0.52;;;17.10;72.60;;;;;;5005028;28;20049;-80
2023/03/25 00:08:55;;;;;;;1.40;0.40;;;17.10;72.60;;;;;;5006176;28;20046;-80
2023/03/25 00:11:20;;;;;;;0.57;0.52;;;17.10;72.70;;;;;;4987839;28;21135;-80
2023/03/25 00:13:47;;;;;;;0.63;0.57;;;17.10;72.80;;;;;;5000685;28;20061;-80
2023/03/25 00:16:12;;;;;;;0.60;0.40;;;17.00;72.60;;;;;;5005929;28;20042;-79
2023/03/25 00:18:38;;;;;;;0.50;0.35;;;17.00;72.70;;;;;;5004562;28;20590;-79
2023/03/25 00:21:09;;;;;;;0.52;0.40;;;17.00;72.70;;;;;;5007262;28;20072;-80
2023/03/25 00:23:35;;;;;;;0.40;0.40;;;17.00;72.70;;;;;;5003109;28;20100;-79
2023/03/25 00:26:00;;;;;;;0.68;0.60;;;17.00;72.70;;;;;;5006476;28;20042;-80
2023/03/25 00:28:27;;;;;;;0.90;0.50;;;17.00;72.60;;;;;;5004420;28;20111;-80
2023/03/25 00:30:53;;;;;;;0.88;0.30;;;17.00;72.70;;;;;;5005139;28;20581;-80
2023/03/25 00:33:21;;;;;;;0.40;0.30;;;17.00;72.70;;;;;;5008977;28;20046;-79
2023/03/25 00:35:51;;;;;;;0.40;0.30;;;17.00;72.60;;;;;;5009242;28;20046;-80
2023/03/25 00:38:17;;;;;;;1.33;0.63;;;17.00;72.60;;;;;;5005658;28;20128;-80
2023/03/25 00:40:42;;;;;;;0.68;0.50;;;17.00;72.60;;;;;;5009106;28;20125;-80
2023/03/25 00:43:09;;;;;;;0.80;0.35;;;17.00;72.60;;;;;;5008193;28;20125;-80
2023/03/25 00:45:35;;;;;;;0.57;0.45;;;17.00;72.60;;;;;;5021434;28;20046;-80
2023/03/25 00:48:00;;;;;;;0.47;0.40;;;17.00;72.50;;;;;;5010223;28;20531;-80
2023/03/25 00:50:26;;;;;;;0.50;0.50;;;17.00;72.50;;;;;;5005020;28;20108;-80
2023/03/25 00:52:53;;;;;;;1.10;0.52;;;17.00;72.60;;;;;;5006988;28;20458;-80
2023/03/25 00:55:19;;;;;;;0.55;0.40;;;17.00;72.50;;;;;;5010351;28;20514;-80
2023/03/25 00:57:44;;;;;;;0.60;0.60;;;17.00;72.50;;;;;;5005295;28;20042;-80
2023/03/25 01:00:12;;;;;;;0.40;0.40;;;17.00;72.50;;;;;;5006055;28;20048;-80
2023/03/25 01:02:38;;;;;;;0.70;0.47;;;17.00;72.50;;;;;;5007439;28;20046;-80
2023/03/25 01:05:04;;;;;;;0.43;0.22;;;17.00;72.50;;;;;;4986158;28;20418;-80
2023/03/25 01:07:30;;;;;;;0.40;0.30;;;17.00;72.50;;;;;;5005610;28;20419;-80
2023/03/25 01:09:57;;;;;;;0.38;0.38;;;16.90;72.30;;;;;;5008835;28;20581;-80
2023/03/25 01:12:23;;;;;;;0.60;0.40;;;16.90;72.30;;;;;;5007309;28;20042;-79
2023/03/25 01:14:48;;;;;;;0.40;0.30;;;16.90;72.30;;;;;;5016885;28;20517;-80
2023/03/25 01:17:14;;;;;;;0.50;0.50;;;16.90;72.30;;;;;;5009335;28;20048;-80
2023/03/25 01:19:39;;;;;;;0.50;0.40;;;17.00;72.40;;;;;;5008645;28;20455;-80
2023/03/25 01:22:05;;;;;;;0.43;0.20;;;16.90;72.20;;;;;;5021154;28;20482;-80
2023/03/25 01:24:31;;;;;;;0.57;0.50;;;16.90;72.30;;;;;;5003466;28;20128;-79
2023/03/25 01:26:56;;;;;;;0.95;0.40;;;16.90;72.20;;;;;;5005557;28;20044;-80
2023/03/25 01:29:22;;;;;;;0.35;0.30;;;17.00;72.30;;;;;;5009852;28;20046;-80
2023/03/25 01:31:47;;;;;;;0.40;0.30;;;16.90;72.20;;;;;;5004021;28;20060;-80
2023/03/25 01:34:13;;;;;;;0.68;0.50;;;16.90;72.20;;;;;;5007136;28;20464;-80
2023/03/25 01:36:40;;;;;;;0.43;0.40;;;16.90;72.20;;;;;;5006231;28;20590;-80
2023/03/25 01:39:06;;;;;;;0.55;0.30;;;16.90;72.20;;;;;;5005871;28;20503;-80
2023/03/25 01:41:33;;;;;;;0.50;0.40;;;16.90;72.10;;;;;;5005629;28;20837;-80
2023/03/25 01:44:36;;;;;;;0.68;0.30;;;16.90;72.20;;;;;;5005136;28;20050;-80
2023/03/25 01:47:02;;;;;;;0.40;0.30;;;16.90;72.10;;;;;;5006114;28;20073;-80
2023/03/25 01:49:37;;;;;;;0.40;0.32;;;16.90;72.10;;;;;;5004421;28;20121;-80
2023/03/25 01:52:04;;;;;;;0.73;0.43;;;16.90;72.00;;;;;;5004261;28;20041;-80
2023/03/25 01:54:29;;;;;;;0.45;0.30;;;16.90;71.90;;;;;;5004885;28;20038;-79
2023/03/25 01:56:55;;;;;;;0.50;0.47;;;16.90;72.00;;;;;;5006143;28;20044;-80
2023/03/25 01:59:23;;;;;;;0.50;0.30;;;16.90;72.10;;;;;;5024121;28;20050;-80
2023/03/25 02:01:50;;;;;;;0.47;0.38;;;16.90;72.00;;;;;;5006494;28;20558;-80
2023/03/25 02:04:21;;;;;;;0.30;0.30;;;16.90;72.00;;;;;;4996801;28;20045;-80
2023/03/25 02:06:52;;;;;;;0.52;0.22;;;16.90;71.90;;;;;;4988731;28;20053;-80
2023/03/25 02:09:22;;;;;;;0.47;0.30;;;16.90;71.90;;;;;;4987921;28;20124;-80
2023/03/25 02:11:47;;;;;;;0.60;0.40;;;16.90;71.90;;;;;;5004696;28;20037;-80
2023/03/25 02:14:15;;;;;;;0.28;0.20;;;16.90;72.00;;;;;;5005328;28;20056;-80
2023/03/25 02:16:53;;;;;;;0.55;0.40;;;16.90;71.90;;;;;;5002335;28;20042;-80
2023/03/25 02:19:43;;;;;;;0.85;0.30;;;16.90;71.90;;;;;;5007242;28;20048;-80
2023/03/25 02:22:24;;;;;;;0.47;0.20;;;16.90;71.90;;;;;;5003603;28;20125;-80
2023/03/25 02:25:24;;;;;;;0.20;0.20;;;16.90;71.90;;;;;;5008120;28;20078;-80
2023/03/25 02:28:24;;;;;;;1.25;0.65;;;16.80;71.80;;;;;;5003981;28;20079;-80
2023/03/25 02:31:01;;;;;;;0.25;0.25;;;16.90;71.90;;;;;;5003413;28;20042;-80
2023/03/25 02:33:40;;;;;;;0.47;0.30;;;16.90;71.90;;;;;;5003660;28;20057;-79
2023/03/25 02:36:35;;;;;;;0.32;0.28;;;16.90;71.90;;;;;;5006015;28;20113;-79
2023/03/25 02:39:15;;;;;;;0.47;0.40;;;16.80;71.80;;;;;;4999062;28;20314;-80
2023/03/25 02:41:56;;;;;;;0.30;0.22;;;16.80;71.80;;;;;;5007633;28;20046;-73
2023/03/25 02:44:22;;;;;;;0.22;0.20;;;16.80;71.80;;;;;;5007119;28;20050;-73
2023/03/25 02:46:50;;;;;;;0.40;0.28;;;16.80;71.80;;;;;;5005825;28;20762;-73
2023/03/25 02:49:21;;;;;;;0.77;0.40;;;16.80;71.80;;;;;;5019860;28;20046;-73
2023/03/25 02:52:14;;;;;;;0.30;0.28;;;16.90;71.90;;;;;;4985185;28;20035;-73
2023/03/25 02:54:40;;;;;;;0.35;0.20;;;16.90;71.90;;;;;;5001520;28;20191;-73
2023/03/25 02:57:06;;;;;;;0.52;0.20;;;16.80;71.80;;;;;;4990158;28;20134;-73
2023/03/25 02:59:32;;;;;;;0.30;0.25;;;16.80;71.80;;;;;;5005389;28;20066;-74
2023/03/25 03:01:59;;;;;;;0.25;0.22;;;16.80;71.80;;;;;;4976111;28;20046;-73
2023/03/25 03:04:25;;;;;;;0.55;0.35;;;16.80;71.80;;;;;;5012052;28;20054;-73
2023/03/25 03:06:51;;;;;;;0.60;0.40;;;16.80;71.80;;;;;;5004319;28;20111;-74
2023/03/25 03:09:39;;;;;;;0.45;0.38;;;16.80;71.80;;;;;;5001872;28;20042;-74
2023/03/25 03:12:10;;;;;;;0.30;0.30;;;16.80;71.80;;;;;;4988476;28;20432;-73
2023/03/25 03:14:40;;;;;;;0.65;0.25;;;16.80;71.80;;;;;;5005130;28;20095;-74
2023/03/25 03:17:41;;;;;;;1.20;0.40;;;16.80;71.80;;;;;;5006522;28;20072;-73
2023/03/25 03:20:24;;;;;;;0.82;0.32;;;16.80;71.80;;;;;;5006700;28;20038;-73
2023/03/25 03:23:04;;;;;;;0.25;0.20;;;16.80;71.80;;;;;;4996411;28;20046;-74
2023/03/25 03:25:45;;;;;;;0.70;0.30;;;16.80;71.80;;;;;;5004937;28;20034;-73
2023/03/25 03:28:26;;;;;;;0.30;0.30;;;16.80;71.80;;;;;;5002119;28;20049;-73
2023/03/25 03:31:05;;;;;;;0.57;0.50;;;16.80;71.80;;;;;;5002065;28;20049;-74
2023/03/25 03:33:56;;;;;;;0.50;0.30;;;16.80;71.80;;;;;;4983984;28;20042;-74
2023/03/25 03:36:25;;;;;;;0.40;0.40;;;16.80;71.80;;;;;;4988011;28;20100;-73
2023/03/25 03:39:27;;;;;;;0.47;0.28;;;16.80;71.80;;;;;;5004886;28;20050;-74
2023/03/25 03:41:55;;;;;;;0.47;0.30;;;16.70;71.70;;;;;;5005727;28;20058;-74
2023/03/25 03:44:24;;;;;;;0.28;0.25;;;16.80;71.80;;;;;;4986203;28;20108;-73
2023/03/25 03:47:10;;;;;;;0.40;0.30;;;16.70;71.70;;;;;;5003505;28;20045;-74
2023/03/25 03:49:41;;;;;;;0.47;0.35;;;16.70;71.70;;;;;;4992772;28;20176;-75
2023/03/25 03:52:16;;;;;;;0.45;0.30;;;16.80;71.80;;;;;;5005615;28;20065;-74
2023/03/25 03:54:56;;;;;;;0.38;0.30;;;16.70;71.70;;;;;;4966948;28;20050;-74
2023/03/25 03:57:28;;;;;;;0.52;0.40;;;16.70;71.70;;;;;;4988495;28;20054;-74
2023/03/25 04:00:03;;;;;;;0.43;0.35;;;16.80;71.80;;;;;;5005610;28;20054;-73
2023/03/25 04:02:33;;;;;;;0.47;0.40;;;16.70;71.70;;;;;;5001384;28;20034;-73
2023/03/25 04:04:59;;;;;;;0.57;0.45;;;16.70;71.70;;;;;;5005467;28;20053;-73
2023/03/25 04:07:37;;;;;;;0.47;0.40;;;16.70;71.70;;;;;;5008937;28;20042;-74
2023/03/25 04:10:33;;;;;;;0.30;0.30;;;16.70;71.70;;;;;;4993010;28;20053;-74
2023/03/25 04:13:00;;;;;;;0.30;0.20;;;16.70;71.70;;;;;;5007334;28;20057;-73
2023/03/25 04:15:25;;;;;;;0.38;0.30;;;16.70;71.70;;;;;;5004725;28;20049;-74
2023/03/25 04:17:51;;;;;;;0.30;0.22;;;16.70;71.70;;;;;;5003981;28;20054;-73
2023/03/25 04:20:22;;;;;;;0.50;0.20;;;16.70;71.70;;;;;;5022383;28;20037;-74
2023/03/25 04:22:50;;;;;;;0.57;0.30;;;16.70;71.70;;;;;;5006232;28;20053;-74
2023/03/25 04:25:16;;;;;;;0.40;0.40;;;16.70;71.70;;;;;;5008013;28;20042;-74
2023/03/25 04:27:44;;;;;;;0.47;0.32;;;16.70;71.70;;;;;;4989272;28;20037;-73
2023/03/25 04:30:10;;;;;;;0.40;0.30;;;16.70;71.80;;;;;;5008940;28;20415;-74
2023/03/25 04:32:36;;;;;;;0.60;0.35;;;16.70;71.70;;;;;;4990073;28;20046;-74
2023/03/25 04:35:02;;;;;;;0.28;0.20;;;16.70;71.70;;;;;;5008938;28;20038;-74
2023/03/25 04:37:27;;;;;;;0.50;0.35;;;16.70;71.70;;;;;;5006577;28;20462;-73
2023/03/25 04:39:54;;;;;;;1.00;0.50;;;16.70;71.70;;;;;;5007428;28;20057;-74
2023/03/25 04:42:24;;;;;;;0.70;0.35;;;16.70;71.70;;;;;;5007286;28;20042;-74
2023/03/25 04:44:51;;;;;;;0.38;0.30;;;16.70;71.70;;;;;;5001145;28;20184;-74
2023/03/25 04:47:16;;;;;;;0.60;0.60;;;16.70;71.70;;;;;;5009097;28;20080;-74
2023/03/25 04:49:43;;;;;;;0.30;0.20;;;16.70;71.70;;;;;;5004084;28;20066;-74
2023/03/25 04:52:09;;;;;;;0.50;0.40;;;16.70;71.70;;;;;;5005779;28;20041;-73
2023/03/25 04:54:37;;;;;;;0.30;0.30;;;16.70;71.70;;;;;;5005775;28;20038;-74
2023/03/25 04:57:02;;;;;;;0.95;0.63;;;16.70;71.70;;;;;;5006677;28;20103;-73
2023/03/25 04:59:28;;;;;;;0.90;0.40;;;16.70;71.80;;;;;;5024072;28;20046;-73
2023/03/25 05:01:54;;;;;;;0.70;0.50;;;16.80;71.60;;;;;;5005816;28;20053;-73
2023/03/25 05:04:20;;;;;;;0.82;0.57;;;16.80;71.40;;;;;;5008110;28;20041;-73
2023/03/25 05:06:47;;;;;;;0.40;0.40;;;16.80;71.40;;;;;;5005644;28;20042;-73
2023/03/25 05:09:15;;;;;;;0.60;0.40;;;16.70;72.00;;;;;;5009222;28;20076;-73
2023/03/25 05:11:41;;;;;;;0.68;0.40;;;16.70;71.50;;;;;;5002555;28;20038;-74
2023/03/25 05:14:10;;;;;;;0.50;0.40;;;16.70;71.50;;;;;;5006049;28;20128;-73
2023/03/25 05:16:36;;;;;;;0.70;0.30;;;16.70;71.60;;;;;;5009080;28;20141;-74
2023/03/25 05:19:02;;;;;;;0.60;0.30;;;16.70;71.60;;;;;;4989075;28;20120;-73
2023/03/25 05:21:30;;;;;;;1.98;0.40;;;16.70;71.70;;;;;;5007028;28;20337;-73
2023/03/25 05:23:56;;;;;;;0.43;0.28;;;16.70;71.70;;;;;;5016424;28;20488;-74
2023/03/25 05:26:23;;;;;;;0.40;0.30;;;16.70;71.60;;;;;;5006994;28;20064;-73
2023/03/25 05:28:50;;;;;;;0.50;0.30;;;16.70;71.80;;;;;;5004710;28;20045;-73
2023/03/25 05:31:16;;;;;;;0.25;0.20;;;16.70;71.50;;;;;;5004321;28;20077;-73
2023/03/25 05:33:42;;;;;;;0.73;0.43;;;16.70;71.60;;;;;;5019821;28;20049;-74
2023/03/25 05:36:11;;;;;;;0.40;0.30;;;16.70;71.60;;;;;;4989748;28;20522;-73
2023/03/25 05:38:40;;;;;;;0.75;0.50;;;16.70;71.70;;;;;;5004225;28;20060;-74
2023/03/25 05:41:09;;;;;;;0.30;0.30;;;16.70;71.70;;;;;;5006194;28;20042;-73
2023/03/25 05:43:36;;;;;;;0.43;0.30;;;16.70;71.70;;;;;;5005420;28;20112;-73
2023/03/25 05:46:03;;;;;;;0.40;0.30;;;16.60;71.70;;;;;;5007548;28;20437;-73
2023/03/25 05:48:31;;;;;;;2.05;0.40;;;16.60;71.70;;;;;;5004055;28;20053;-73
2023/03/25 05:50:57;;;;;;;0.40;0.40;;;16.70;71.70;;;;;;5007212;28;20144;-73
2023/03/25 05:53:23;;;;;;;0.57;0.38;;;16.70;71.70;;;;;;5004119;28;20507;-73
2023/03/25 05:55:50;;;;;;;0.60;0.40;;;16.70;71.70;;;;;;5006534;28;20056;-73
2023/03/25 05:58:16;;;;;;;0.30;0.30;;;16.60;71.70;;;;;;5011191;28;20135;-73
2023/03/25 06:00:42;;;;;;;0.88;0.45;;;16.70;71.70;;;;;;5004321;28;20454;-74
2023/03/25 06:03:08;;;;;;;0.50;0.40;;;16.70;71.70;;;;;;5007381;28;20034;-73
2023/03/25 06:05:34;;;;;;;0.50;0.32;;;16.60;71.60;;;;;;5008360;28;20482;-73
2023/03/25 06:08:00;;;;;;;0.32;0.30;;;16.70;71.70;;;;;;5004348;28;20042;-73
2023/03/25 06:10:26;;;;;;;0.52;0.45;;;16.70;71.60;;;;;;5002162;28;20129;-73
2023/03/25 06:12:52;;;;;;;0.82;0.57;;;16.60;71.50;;;;;;5006897;28;20136;-73
2023/03/25 06:15:27;;;;;;;0.60;0.47;;;16.70;71.70;;;;;;5004443;28;20060;-73
2023/03/25 06:17:54;;;;;;;0.57;0.40;;;16.60;71.50;;;;;;5006963;28;20046;-73
2023/03/25 06:20:20;;;;;;;0.40;0.32;;;16.70;71.70;;;;;;5018623;28;20048;-73
2023/03/25 06:22:45;;;;;;;0.80;0.50;;;16.60;71.60;;;;;;5007896;28;20033;-73
2023/03/25 06:25:13;;;;;;;0.40;0.30;;;16.70;71.60;;;;;;5001715;28;20085;-73
2023/03/25 06:27:41;;;;;;;0.60;0.40;;;16.60;71.70;;;;;;4984433;28;20434;-73
2023/03/25 06:30:12;;;;;;;0.57;0.30;;;16.60;71.50;;;;;;5006624;28;20042;-73
2023/03/25 06:32:37;;;;;;;0.85;0.40;;;16.70;71.50;;;;;;5010001;28;20045;-73
2023/03/25 06:35:04;;;;;;;0.60;0.43;;;16.60;71.60;;;;;;5007192;28;20107;-73
2023/03/25 06:37:30;;;;;;;0.40;0.20;;;16.60;71.50;;;;;;5027343;28;20404;-73
2023/03/25 06:39:55;;;;;;;0.55;0.47;;;16.60;71.50;;;;;;5008758;28;20533;-73
2023/03/25 06:42:26;;;;;;;0.80;0.52;;;16.60;71.50;;;;;;5008419;28;20579;-73
2023/03/25 06:44:52;;;;;;;0.93;0.50;;;16.60;71.50;;;;;;5007448;28;20041;-73
2023/03/25 06:47:17;;;;;;;0.70;0.50;;;16.70;71.50;;;;;;5007738;28;20048;-73
2023/03/25 06:49:43;;;;;;;1.20;0.47;;;16.60;71.40;;;;;;5009807;28;20038;-73
2023/03/25 06:52:08;;;;;;;0.70;0.43;;;16.70;71.50;;;;;;5007123;28;20052;-73
2023/03/25 06:54:34;;;;;;;0.70;0.50;;;16.70;71.50;;;;;;5023047;28;20418;-73
2023/03/25 06:57:00;;;;;;;0.63;0.50;;;16.60;71.50;;;;;;5004905;28;20049;-73
2023/03/25 06:59:25;;;;;;;0.63;0.40;;;16.70;71.50;;;;;;5008144;28;20132;-73
2023/03/25 07:01:51;;;;;;;0.38;0.30;;;16.70;71.40;;;;;;5003274;28;20045;-73
2023/03/25 07:04:16;;;;;;;0.40;0.20;;;16.70;71.40;;;;;;5004773;28;20341;-73
2023/03/25 07:06:42;;;;;;;0.70;0.68;;;16.70;71.40;;;;;;5003497;28;20132;-74
2023/03/25 07:09:07;;;;;;;1.48;0.50;;;16.70;71.40;;;;;;5007007;28;20104;-73
2023/03/25 07:11:33;;;;;;;0.45;0.30;;;16.70;71.30;;;;;;5005152;28;20430;-73
2023/03/25 07:13:59;;;;;;;0.55;0.40;;;16.70;71.30;;;;;;5005074;28;20125;-73
2023/03/25 07:16:25;;;;;;;0.80;0.47;;;16.70;71.30;;;;;;4987698;28;20423;-73
2023/03/25 07:18:50;;;;;;;0.50;0.50;;;16.70;71.30;;;;;;4985691;28;20049;-75
2023/03/25 07:21:17;;;;;;;0.60;0.50;;;16.70;71.60;;;;;;5003942;28;20467;-74
2023/03/25 07:23:42;;;;;;;0.73;0.40;;;16.70;71.50;;;;;;5004708;28;20038;-74
2023/03/25 07:26:08;;;;;;;0.88;0.50;;;16.80;71.20;;;;;;5003830;28;20056;-73
2023/03/25 07:28:34;;;;;;;0.65;0.57;;;16.80;71.50;;;;;;4654987;28;10000227;-74
2023/03/25 07:30:59;;;;;;;0.95;0.38;;;16.80;71.40;;;;;;5003476;28;20050;-73
2023/03/25 07:33:25;;;;;;;0.73;0.43;;;16.80;71.40;;;;;;5003894;28;20132;-74
2023/03/25 07:35:50;;;;;;;0.50;0.50;;;16.80;71.20;;;;;;4999076;28;20538;-75
2023/03/25 07:38:16;;;;;;;0.68;0.40;;;16.80;71.30;;;;;;5001154;28;20086;-74
2023/03/25 07:40:42;;;;;;;0.88;0.75;;;16.80;71.70;;;;;;5001616;28;20050;-73
2023/03/25 07:43:07;;;;;;;0.65;0.45;;;16.80;71.70;;;;;;5003953;28;20188;-73
2023/03/25 07:45:33;;;;;;;0.98;0.60;;;16.80;71.70;;;;;;5004550;28;20045;-74
2023/03/25 07:48:01;;;;;;;0.77;0.50;;;16.80;71.40;;;;;;5000997;28;20045;-73
2023/03/25 07:50:27;;;;;;;0.82;0.60;;;16.80;71.40;;;;;;5004735;28;20119;-73
2023/03/25 07:52:53;;;;;;;1.25;0.60;;;16.80;71.40;;;;;;5004559;28;20451;-74
2023/03/25 07:55:19;;;;;;;1.50;0.60;;;16.80;71.40;;;;;;4999197;28;20565;-75
2023/03/25 07:57:45;;;;;;;1.63;0.40;;;16.80;71.50;;;;;;4987025;28;20050;-76
2023/03/25 08:00:11;;;;;;;1.35;0.55;;;16.90;71.30;;;;;;4992178;28;20049;-74
2023/03/25 08:02:38;;;;;;;0.75;0.45;;;16.90;71.20;;;;;;5003417;28;20132;-75
2023/03/25 08:05:04;;;;;;;0.50;0.40;;;16.90;71.50;;;;;;5001968;28;20066;-74
2023/03/25 08:07:30;;;;;;;0.88;0.55;;;16.90;71.40;;;;;;5005381;28;20041;-74
2023/03/25 08:09:56;;;;;;;1.05;0.40;;;16.90;71.90;;;;;;5004283;28;20046;-75
2023/03/25 08:12:21;;;;;;;0.50;0.50;;;16.90;71.60;;;;;;5006153;28;20038;-74
2023/03/25 08:14:47;;;;;;;0.93;0.50;;;16.90;71.70;;;;;;5004869;28;20529;-75
2023/03/25 08:17:12;;;;;;;0.70;0.60;;;16.90;71.40;;;;;;5005106;28;20429;-76
2023/03/25 08:19:39;;;;;;;0.75;0.75;;;16.90;71.60;;;;;;5022434;28;20053;-75
2023/03/25 08:22:05;;;;;;;0.55;0.55;;;16.90;71.90;;;;;;5005463;28;22731;-75
2023/03/25 08:24:31;;;;;;;1.45;0.50;;;16.90;71.60;;;;;;5008332;28;20073;-74
2023/03/25 08:26:59;;;;;;;2.25;0.50;;;16.90;71.40;;;;;;5009114;28;20119;-75
2023/03/25 08:29:26;;;;;;;0.80;0.40;;;16.90;71.50;;;;;;5011074;28;20056;-74
2023/03/25 08:31:51;;;;;;;0.77;0.50;;;16.90;71.50;;;;;;5008105;28;20120;-75
2023/03/25 08:34:18;;;;;;;1.90;0.60;;;16.90;71.50;;;;;;5021256;28;20603;-75
2023/03/25 08:36:44;;;;;;;0.57;0.40;;;16.90;71.50;;;;;;5006488;28;20046;-75
2023/03/25 08:39:10;;;;;;;0.80;0.63;;;16.90;71.50;;;;;;5010978;28;20411;-76
2023/03/25 08:41:40;;;;;;;0.50;0.50;;;16.90;71.40;;;;;;5009673;28;20050;-80
2023/03/25 08:44:07;;;;;;;2.80;0.50;;;16.90;71.30;;;;;;5008962;28;20300;-81
2023/03/25 08:46:32;;;;;;;0.95;0.40;;;17.00;71.30;;;;;;5012436;28;20203;-81
2023/03/25 08:48:58;;;;;;;0.60;0.38;;;17.00;71.40;;;;;;5011992;28;20557;-81
2023/03/25 08:51:23;;;;;;;0.68;0.68;;;16.90;71.20;;;;;;5005385;28;20046;-80
2023/03/25 08:53:49;;;;;;;2.70;0.47;;;16.90;71.80;;;;;;5008451;28;20446;-80
2023/03/25 08:56:15;;;;;;;0.60;0.30;;;16.90;71.80;;;;;;5010332;28;20060;-80
2023/03/25 08:58:40;;;;;;;1.52;0.65;;;17.00;71.70;;;;;;4992911;28;20092;-79
2023/03/25 09:01:06;;;;;;;1.17;1.08;;;17.00;71.80;;;;;;5006896;28;20071;-80
2023/03/25 09:03:32;;;;;;;3.40;2.30;;;16.90;71.50;;;;;;5010601;28;20125;-80
2023/03/25 09:05:57;;;;;;;26.08;15.25;;;17.00;72.20;;;;;;5019947;28;20042;-79
2023/03/25 09:08:23;;;;;;;51.35;29.42;;;17.00;71.80;;;;;;5009826;28;20048;-82
2023/03/25 09:10:49;;;;;;;87.25;47.90;;;17.00;71.70;;;;;;5012235;28;20049;-80
2023/03/25 09:13:14;;;;;;;117.22;66.07;;;17.00;71.70;;;;;;5008905;28;20049;-87
2023/03/25 09:15:40;;;;;;;143.43;82.80;;;17.00;72.70;;;;;;5008355;28;20033;-82
2023/03/25 09:18:06;;;;;;;133.02;77.70;;;17.10;72.20;;;;;;5007356;28;20092;-82
2023/03/25 09:20:32;;;;;;;128.23;74.38;;;17.10;72.00;;;;;;5008235;28;20045;-82
2023/03/25 09:22:57;;;;;;;117.82;65.85;;;17.10;72.00;;;;;;5008335;28;20125;-82
2023/03/25 09:25:23;;;;;;;104.53;63.15;;;17.10;72.00;;;;;;5008649;28;20580;-82
2023/03/25 09:27:49;;;;;;;119.78;69.07;;;17.00;71.90;;;;;;5017110;28;20038;-82
2023/03/25 09:30:14;;;;;;;119.50;67.22;;;17.10;72.00;;;;;;5007312;28;20400;-82
2023/03/25 09:32:40;;;;;;;105.35;61.03;;;17.00;72.00;;;;;;5003677;28;20042;-82
2023/03/25 09:35:06;;;;;;;100.65;59.28;;;17.10;72.00;;;;;;5008006;28;20129;-82
2023/03/25 09:37:32;;;;;;;91.88;55.40;;;17.10;72.00;;;;;;5010186;28;20381;-82
2023/03/25 09:39:58;;;;;;;86.80;51.05;;;17.10;72.00;;;;;;5008281;28;20103;-82
2023/03/25 09:42:36;;;;;;;83.25;48.22;;;17.00;71.90;;;;;;5009294;28;20053;-82
2023/03/25 09:45:10;;;;;;;79.18;46.13;;;17.10;71.90;;;;;;5008425;28;20061;-82
2023/03/25 09:47:35;;;;;;;;;;;17.10;71.80;;;;;;5008672;28;20077;-81
2023/03/25 09:50:04;;;;;;;76.53;45.33;;;17.10;71.70;;;;;;5007568;28;19968;-81
2023/03/25 09:52:42;;;;;;;75.25;44.20;;;17.10;71.60;;;;;;4658525;28;9999744;-81
2023/03/25 09:55:09;;;;;;;80.15;45.78;;;17.10;71.60;;;;;;5003509;28;20041;-81
2023/03/25 09:57:40;;;;;;;83.05;47.63;;;17.10;71.60;;;;;;5018934;28;20093;-80
2023/03/25 10:00:07;;;;;;;85.22;48.22;;;17.10;71.70;;;;;;4991450;28;20091;-84
2023/03/25 10:02:36;;;;;;;77.82;47.05;;;17.10;71.70;;;;;;4999690;28;20393;-81
2023/03/25 10:05:34;;;;;;;76.63;43.83;;;17.10;71.80;;;;;;5004104;28;20129;-83
2023/03/25 10:08:05;;;;;;;67.20;39.92;;;17.10;71.70;;;;;;5016208;28;20415;-81
2023/03/25 10:10:50;;;;;;;67.78;38.85;;;17.10;71.60;;;;;;5005030;28;20046;-81
2023/03/25 10:13:40;;;;;;;70.35;41.05;;;17.10;71.50;;;;;;5005265;28;20073;-82
2023/03/25 10:16:31;;;;;;;60.60;36.75;;;17.20;71.50;;;;;;5006078;28;20082;-81
2023/03/25 10:19:03;;;;;;;54.78;31.77;;;17.10;71.30;;;;;;5004186;28;20045;-80
2023/03/25 10:21:44;;;;;;;46.88;30.33;;;17.20;71.10;;;;;;5008212;28;20045;-81
2023/03/25 10:24:31;;;;;;;49.92;30.55;;;17.20;71.00;;;;;;5010748;28;20060;-81
2023/03/25 10:27:28;;;;;;;49.25;29.80;;;17.20;71.80;;;;;;5004422;28;20550;-82
2023/03/25 10:30:04;;;;;;;45.28;28.85;;;17.20;71.00;;;;;;5007379;28;20058;-82
2023/03/25 10:32:56;;;;;;;44.40;27.75;;;17.10;70.80;;;;;;5005941;28;20045;-82
2023/03/25 10:35:30;;;;;;;44.10;27.55;;;17.20;70.80;;;;;;5005571;28;20039;-80
2023/03/25 10:38:05;;;;;;;46.17;28.02;;;17.20;70.90;;;;;;4993683;28;20116;-80
2023/03/25 10:40:37;;;;;;;49.85;30.02;;;17.20;71.10;;;;;;5007527;28;20073;-81
2023/03/25 10:43:26;;;;;;;49.38;30.38;;;17.20;71.30;;;;;;4979512;28;20462;-78
2023/03/25 10:45:55;;;;;;;45.17;27.30;;;17.10;71.70;;;;;;5005056;28;20493;-79
2023/03/25 10:48:26;;;;;;;47.83;29.30;;;17.20;71.80;;;;;;5001066;28;20057;-82
2023/03/25 10:51:03;;;;;;;57.53;30.65;;;17.20;71.90;;;;;;5006734;28;20499;-79
2023/03/25 10:53:29;;;;;;;53.38;29.88;;;17.20;72.80;;;;;;5005330;28;20045;-81
2023/03/25 10:56:03;;;;;;;50.85;28.67;;;17.20;73.40;;;;;;5004410;28;20068;-80
2023/03/25 10:58:32;;;;;;;45.78;28.23;;;17.20;73.60;;;;;;4987161;28;20053;-79
2023/03/25 11:00:59;;;;;;;44.78;26.85;;;17.20;74.20;;;;;;5006115;28;20035;-79
2023/03/25 11:03:31;;;;;;;41.85;25.35;;;17.20;72.80;;;;;;5005316;28;20030;-83
2023/03/25 11:05:57;;;;;;;47.13;26.02;;;17.30;72.80;;;;;;4992443;28;20082;-80
2023/03/25 11:08:24;;;;;;;38.47;23.40;;;17.20;72.70;;;;;;5006626;28;20042;-82
2023/03/25 11:10:54;;;;;;;52.00;25.65;;;17.30;72.60;;;;;;5006320;28;20532;-80
2023/03/25 11:13:26;;;;;;;45.60;24.90;;;17.30;72.50;;;;;;5005730;28;20113;-79
2023/03/25 11:15:58;;;;;;;37.53;23.52;;;17.20;72.60;;;;;;5007077;28;20049;-80
2023/03/25 11:18:37;;;;;;;41.03;24.38;;;17.20;72.60;;;;;;4990583;28;20044;-81
2023/03/25 11:21:07;;;;;;;40.90;23.20;;;17.30;75.40;;;;;;5008926;28;20033;-80
2023/03/25 11:23:34;;;;;;;37.38;22.50;;;17.30;74.90;;;;;;5000353;28;20038;-80
2023/03/25 11:26:22;;;;;;;34.40;21.70;;;17.30;75.70;;;;;;5003124;28;20042;-81
2023/03/25 11:28:49;;;;;;;30.88;19.13;;;17.30;75.50;;;;;;5015187;28;20054;-81
2023/03/25 11:31:19;;;;;;;30.83;19.40;;;17.30;74.70;;;;;;5022826;28;20136;-79
2023/03/25 11:34:05;;;;;;;29.65;18.88;;;17.30;75.10;;;;;;5003294;28;20038;-81
2023/03/25 11:36:54;;;;;;;26.10;16.58;;;17.30;74.00;;;;;;5010965;28;20125;-81
2023/03/25 11:39:22;;;;;;;30.95;18.00;;;17.40;74.30;;;;;;5007200;28;20058;-81
2023/03/25 11:41:48;;;;;;;29.10;17.15;;;17.40;75.00;;;;;;5006876;28;20042;-82
2023/03/25 11:44:21;;;;;;;28.80;17.27;;;17.40;73.80;;;;;;5004017;28;20053;-81
2023/03/25 11:46:48;;;;;;;28.40;17.42;;;17.40;74.50;;;;;;4993343;28;20075;-81
2023/03/25 11:49:15;;;;;;;25.75;16.38;;;17.40;73.40;;;;;;5008154;28;20038;-80
2023/03/25 11:51:41;;;;;;;27.20;16.60;;;17.40;73.40;;;;;;5000636;28;20049;-81
2023/03/25 11:54:10;;;;;;;27.00;16.23;;;17.40;73.80;;;;;;5005715;28;20046;-80
2023/03/25 11:56:40;;;;;;;24.42;14.63;;;17.40;73.40;;;;;;4309481;28;10000832;-81
2023/03/25 11:59:20;;;;;;;24.70;15.60;;;17.40;73.20;;;;;;5004986;28;20033;-83
2023/03/25 12:01:47;;;;;;;25.17;16.52;;;17.40;73.00;;;;;;4998057;28;20498;-83
2023/03/25 12:04:14;;;;;;;24.85;15.70;;;17.40;72.80;;;;;;5002149;28;20045;-83
2023/03/25 12:07:00;;;;;;;23.65;15.13;;;17.40;72.60;;;;;;5001205;28;20073;-83
2023/03/25 12:09:30;;;;;;;24.95;16.00;;;17.40;72.50;;;;;;5008988;28;20048;-84
2023/03/25 12:11:58;;;;;;;26.45;16.38;;;17.40;72.30;;;;;;4993744;28;20125;-83
2023/03/25 12:14:33;;;;;;;26.15;16.25;;;17.40;72.50;;;;;;5001369;28;20044;-81
2023/03/25 12:17:24;;;;;;;23.73;15.68;;;17.40;72.30;;;;;;5004452;28;20630;-81
2023/03/25 12:19:55;;;;;;;23.23;15.18;;;17.40;72.20;;;;;;4999686;28;20049;-80
2023/03/25 12:22:44;;;;;;;25.55;15.63;;;17.40;72.20;;;;;;5008727;28;20053;-82
2023/03/25 12:25:16;;;;;;;22.73;13.95;;;17.40;72.20;;;;;;4998044;28;20048;-81
2023/03/25 12:28:11;;;;;;;21.63;13.70;;;17.40;72.10;;;;;;5003233;28;20040;-81
2023/03/25 12:30:59;;;;;;;21.98;14.15;;;17.40;71.90;;;;;;5007030;28;20033;-81
2023/03/25 12:33:43;;;;;;;19.90;13.40;;;17.40;71.90;;;;;;5022445;28;20069;-82
2023/03/25 12:36:09;;;;;;;;;;;17.40;71.80;;;;;;5007510;28;20064;-82
2023/03/25 12:39:00;;;;;;;19.35;13.25;;;17.30;71.50;;;;;;5006557;28;20377;-82
2023/03/25 12:41:34;;;;;;;21.25;13.75;;;17.30;71.50;;;;;;5004587;28;20057;-82
2023/03/25 12:44:00;;;;;;;;;;;17.30;71.40;;;;;;5009669;28;20042;-82
2023/03/25 12:46:28;;;;;;;22.40;12.95;;;17.40;71.50;;;;;;5008710;28;20302;-82
2023/03/25 12:49:06;;;;;;;20.27;13.32;;;17.40;71.20;;;;;;5006250;28;20092;-82
2023/03/25 12:51:57;;;;;;;18.85;12.15;;;17.40;71.90;;;;;;5005406;28;20069;-82
2023/03/25 12:54:47;;;;;;;17.17;12.18;;;17.40;71.00;;;;;;5006120;28;20137;-82
2023/03/25 12:57:52;;;;;;;19.63;12.40;;;17.40;70.90;;;;;;5009032;28;20041;-82